createdAt,value
2023-04-23T00:00:12.226Z,8.99
2023-04-23T00:02:50.033Z,8.97
2023-04-23T00:05:17.837Z,8.90
2023-04-23T00:07:46.012Z,8.92
2023-04-23T00:10:13.786Z,8.89
2023-04-23T00:12:41.878Z,8.86
2023-04-23T00:15:10.032Z,8.83
2023-04-23T00:17:37.749Z,8.78
2023-04-23T00:20:06.555Z,8.72
2023-04-23T00:22:34.113Z,8.69
2023-04-23T00:25:01.559Z,8.64
2023-04-23T00:27:29.365Z,8.59
2023-04-23T00:29:56.855Z,8.51
2023-04-23T00:32:24.313Z,8.45
2023-04-23T00:34:51.979Z,8.38
2023-04-23T00:37:19.731Z,8.31
2023-04-23T00:39:47.230Z,8.21
2023-04-23T00:42:17.338Z,8.11
2023-04-23T00:44:44.842Z,8.02
2023-04-23T00:47:12.446Z,7.90
2023-04-23T00:49:39.917Z,7.85
2023-04-23T00:52:07.454Z,7.79
2023-04-23T00:54:34.981Z,7.73
2023-04-23T00:57:02.552Z,7.68
2023-04-23T00:59:30.183Z,7.63
2023-04-23T01:01:59.012Z,7.58
2023-04-23T01:04:27.994Z,7.53
2023-04-23T01:06:56.363Z,7.48
2023-04-23T01:09:23.960Z,7.39
2023-04-23T01:11:51.444Z,7.27
2023-04-23T01:14:18.920Z,7.21
2023-04-23T01:16:47.170Z,7.13
2023-04-23T01:19:16.267Z,7.13
2023-04-23T01:21:44.100Z,7.17
2023-04-23T01:24:11.741Z,7.23
2023-04-23T01:26:40.810Z,7.22
2023-04-23T01:29:09.960Z,7.18
2023-04-23T01:31:37.695Z,7.12
2023-04-23T01:34:05.405Z,7.03
2023-04-23T01:36:35.063Z,6.92
2023-04-23T01:39:03.376Z,6.94
2023-04-23T01:41:30.888Z,6.96
2023-04-23T01:43:58.695Z,6.94
2023-04-23T01:46:26.375Z,6.97
2023-04-23T01:48:53.908Z,7.04
2023-04-23T01:51:21.358Z,7.14
2023-04-23T01:53:48.863Z,7.38
2023-04-23T01:56:16.705Z,7.65
2023-04-23T01:58:44.335Z,7.81
2023-04-23T02:01:12.014Z,7.91
2023-04-23T02:03:39.761Z,8.05
2023-04-23T02:06:07.972Z,7.97
2023-04-23T02:08:36.354Z,7.96
2023-04-23T02:11:05.573Z,7.85
2023-04-23T02:13:33.370Z,7.94
2023-04-23T02:16:00.878Z,7.94
2023-04-23T02:18:30.719Z,8.00
2023-04-23T02:20:59.869Z,7.85
2023-04-23T02:23:29.213Z,8.05
2023-04-23T02:25:56.947Z,8.12
2023-04-23T02:28:24.735Z,8.07
2023-04-23T02:30:52.208Z,8.06
2023-04-23T02:33:21.610Z,8.11
2023-04-23T02:35:49.036Z,8.18
2023-04-23T02:38:16.892Z,8.24
2023-04-23T02:40:44.385Z,8.17
2023-04-23T02:43:11.921Z,8.18
2023-04-23T02:45:39.488Z,8.00
2023-04-23T02:48:07.198Z,7.78
2023-04-23T02:50:35.212Z,7.72
2023-04-23T02:53:02.850Z,7.99
2023-04-23T02:55:32.096Z,7.98
2023-04-23T02:58:00.108Z,7.83
2023-04-23T03:00:28.063Z,8.00
2023-04-23T03:02:55.841Z,7.92
2023-04-23T03:05:23.425Z,8.06
2023-04-23T03:07:50.952Z,8.05
2023-04-23T03:10:18.538Z,8.06
2023-04-23T03:12:46.480Z,8.04
2023-04-23T03:15:15.406Z,7.99
2023-04-23T03:17:43.972Z,7.96
2023-04-23T03:20:14.671Z,7.94
2023-04-23T03:22:43.167Z,7.77
2023-04-23T03:25:11.270Z,7.85
2023-04-23T03:27:40.625Z,7.88
2023-04-23T03:30:08.997Z,8.04
2023-04-23T03:32:36.606Z,8.07
2023-04-23T03:35:04.764Z,8.44
2023-04-23T03:37:33.440Z,8.70
2023-04-23T03:40:07.663Z,9.10
2023-04-23T03:42:38.921Z,9.52
2023-04-23T03:45:07.641Z,9.94
2023-04-23T03:47:35.358Z,10.50
2023-04-23T03:50:03.138Z,11.21
2023-04-23T03:52:31.257Z,11.79
2023-04-23T03:54:59.414Z,12.12
2023-04-23T03:57:32.817Z,12.42
2023-04-23T04:00:16.651Z,12.88
2023-04-23T04:02:44.976Z,13.01
2023-04-23T04:05:13.832Z,13.67
2023-04-23T04:07:41.537Z,14.20
2023-04-23T04:10:09.391Z,14.87
2023-04-23T04:12:37.260Z,15.20
2023-04-23T04:15:05.215Z,15.20
2023-04-23T04:17:32.782Z,15.73
2023-04-23T04:20:00.586Z,15.76
2023-04-23T04:22:29.498Z,15.91
2023-04-23T04:24:57.557Z,16.88
2023-04-23T04:27:25.184Z,16.89
2023-04-23T04:29:52.636Z,17.37
2023-04-23T04:32:20.191Z,17.63
2023-04-23T04:34:47.757Z,16.91
2023-04-23T04:37:15.442Z,16.79
2023-04-23T04:39:43.020Z,16.93
2023-04-23T04:42:13.186Z,17.51
2023-04-23T04:44:41.930Z,17.93
2023-04-23T04:47:11.044Z,17.25
2023-04-23T04:49:38.851Z,17.31
2023-04-23T04:52:07.014Z,17.06
2023-04-23T04:54:35.684Z,17.68
2023-04-23T04:57:03.840Z,17.27
2023-04-23T04:59:32.144Z,17.56
2023-04-23T05:02:00.228Z,18.32
2023-04-23T05:04:28.076Z,18.21
2023-04-23T05:06:56.585Z,17.96
2023-04-23T05:09:25.147Z,17.81
2023-04-23T05:11:52.928Z,17.50
2023-04-23T05:14:20.849Z,16.81
2023-04-23T05:16:48.917Z,16.77
2023-04-23T05:19:17.376Z,16.46
2023-04-23T05:21:45.918Z,16.70
2023-04-23T05:24:13.881Z,16.86
2023-04-23T05:26:41.716Z,16.87
2023-04-23T05:29:09.973Z,16.71
2023-04-23T05:31:37.468Z,16.75
2023-04-23T05:34:05.359Z,16.32
2023-04-23T05:36:32.921Z,16.06
2023-04-23T05:39:01.370Z,15.25
2023-04-23T05:41:29.814Z,15.02
2023-04-23T05:43:57.796Z,15.23
2023-04-23T05:46:26.711Z,15.39
2023-04-23T05:48:55.117Z,15.47
2023-04-23T05:51:23.368Z,15.30
2023-04-23T05:53:51.023Z,15.64
2023-04-23T05:56:18.825Z,15.85
2023-04-23T05:58:46.652Z,16.01
2023-04-23T06:01:14.171Z,15.79
2023-04-23T06:03:45.550Z,15.73
2023-04-23T06:06:14.315Z,16.12
2023-04-23T06:08:42.299Z,16.24
2023-04-23T06:11:09.864Z,16.54
2023-04-23T06:13:42.821Z,16.81
2023-04-23T06:16:11.216Z,16.52
2023-04-23T06:18:39.317Z,17.02
2023-04-23T06:21:07.042Z,16.96
2023-04-23T06:23:35.698Z,17.25
2023-04-23T06:26:04.391Z,17.43
2023-04-23T06:28:32.022Z,17.28
2023-04-23T06:31:34.987Z,17.59
2023-04-23T06:34:02.543Z,17.73
2023-04-23T06:36:30.137Z,17.55
2023-04-23T06:38:57.641Z,17.42
2023-04-23T06:41:25.247Z,17.28
2023-04-23T06:44:04.779Z,17.58
2023-04-23T06:46:36.509Z,17.86
2023-04-23T06:49:04.221Z,18.28
2023-04-23T06:51:32.332Z,18.38
2023-04-23T06:54:00.075Z,18.60
2023-04-23T06:56:27.701Z,18.89
2023-04-23T06:58:55.189Z,19.16
2023-04-23T07:01:23.005Z,19.31
2023-04-23T07:03:54.508Z,19.31
2023-04-23T07:06:22.283Z,19.31
2023-04-23T07:08:49.928Z,19.29
2023-04-23T07:11:17.527Z,19.29
2023-04-23T07:13:44.971Z,19.24
2023-04-23T07:16:12.690Z,19.18
2023-04-23T07:18:40.249Z,18.79
2023-04-23T07:21:08.308Z,18.72
2023-04-23T07:23:35.912Z,18.72
2023-04-23T07:26:03.948Z,19.23
2023-04-23T07:28:32.274Z,19.15
2023-04-23T07:30:59.768Z,19.02
2023-04-23T07:33:27.550Z,19.23
2023-04-23T07:35:54.968Z,18.79
2023-04-23T07:38:22.389Z,18.33
2023-04-23T07:40:49.836Z,18.33
2023-04-23T07:43:17.656Z,18.17
2023-04-23T07:45:45.331Z,18.48
2023-04-23T07:48:12.846Z,18.90
2023-04-23T07:50:41.084Z,18.82
2023-04-23T07:53:08.540Z,18.73
2023-04-23T07:55:36.750Z,18.87
2023-04-23T07:58:04.719Z,18.74
2023-04-23T08:00:33.355Z,18.85
2023-04-23T08:03:01.017Z,19.23
2023-04-23T08:05:28.654Z,19.25
2023-04-23T08:07:56.257Z,19.38
2023-04-23T08:10:23.768Z,19.57
2023-04-23T08:12:51.366Z,19.68
2023-04-23T08:15:18.863Z,20.02
2023-04-23T08:17:46.405Z,19.88
2023-04-23T08:20:13.956Z,19.85
2023-04-23T08:22:41.488Z,19.99
2023-04-23T08:25:09.577Z,20.25
2023-04-23T08:27:37.095Z,20.41
2023-04-23T08:30:06.913Z,20.73
2023-04-23T08:32:34.905Z,20.69
2023-04-23T08:35:03.037Z,20.37
2023-04-23T08:37:31.726Z,20.32
2023-04-23T08:39:59.431Z,20.58
2023-04-23T08:42:53.526Z,20.53
2023-04-23T08:45:21.946Z,20.83
2023-04-23T08:47:49.440Z,20.45
2023-04-23T08:50:18.185Z,20.42
2023-04-23T08:52:55.884Z,20.51
2023-04-23T08:55:23.702Z,20.71
2023-04-23T08:57:51.319Z,20.42
2023-04-23T09:00:19.873Z,20.85
2023-04-23T09:02:48.464Z,20.89
2023-04-23T09:05:16.124Z,20.87
2023-04-23T09:07:43.858Z,20.59
2023-04-23T09:10:14.066Z,20.26
2023-04-23T09:12:43.544Z,20.13
2023-04-23T09:15:12.003Z,20.70
2023-04-23T09:17:46.471Z,20.51
2023-04-23T09:20:14.609Z,20.58
2023-04-23T09:22:47.591Z,21.07
2023-04-23T09:25:17.983Z,20.78
2023-04-23T09:27:46.845Z,20.90
2023-04-23T09:30:14.910Z,20.71
2023-04-23T09:32:43.551Z,20.49
2023-04-23T09:35:15.721Z,20.79
2023-04-23T09:37:52.541Z,21.38
2023-04-23T09:40:22.863Z,20.75
2023-04-23T09:42:52.739Z,20.83
2023-04-23T09:45:20.834Z,20.98
2023-04-23T09:47:53.907Z,21.34
2023-04-23T09:50:38.502Z,20.74
2023-04-23T09:53:07.280Z,20.75
2023-04-23T09:55:39.493Z,20.10
2023-04-23T09:58:11.218Z,20.44
2023-04-23T10:00:39.338Z,20.27
2023-04-23T10:03:07.935Z,20.24
2023-04-23T10:08:14.048Z,20.98
2023-04-23T10:10:54.574Z,20.90
2023-04-23T10:13:28.028Z,21.41
2023-04-23T10:15:59.078Z,20.78
2023-04-23T10:18:32.457Z,21.32
2023-04-23T10:21:00.597Z,21.63
2023-04-23T10:23:28.152Z,21.36
2023-04-23T10:25:56.790Z,21.55
2023-04-23T10:28:29.176Z,21.74
2023-04-23T10:30:57.232Z,21.66
2023-04-23T10:35:57.046Z,21.29
2023-04-23T10:38:24.953Z,21.39
2023-04-23T10:40:52.448Z,21.16
2023-04-23T10:43:20.131Z,21.39
2023-04-23T10:45:47.614Z,20.45
2023-04-23T10:48:15.341Z,21.08
2023-04-23T10:51:02.492Z,21.74
2023-04-23T10:53:32.521Z,21.51
2023-04-23T10:56:07.788Z,21.47
2023-04-23T10:58:50.073Z,21.61
2023-04-23T11:01:18.314Z,21.62
2023-04-23T11:03:46.000Z,20.80
2023-04-23T11:06:15.831Z,20.87
2023-04-23T11:08:56.942Z,20.73
2023-04-23T11:11:41.441Z,20.68
2023-04-23T11:14:14.498Z,20.07
2023-04-23T11:16:42.104Z,20.04
2023-04-23T11:19:12.526Z,20.68
2023-04-23T11:22:02.915Z,21.14
2023-04-23T11:24:42.043Z,20.98
2023-04-23T11:27:11.729Z,20.88
2023-04-23T11:29:40.761Z,20.75
2023-04-23T11:32:13.126Z,20.29
2023-04-23T11:34:43.377Z,20.10
2023-04-23T11:37:11.752Z,19.98
2023-04-23T11:39:41.580Z,19.94
2023-04-23T11:42:16.110Z,19.75
2023-04-23T11:44:44.512Z,20.16
2023-04-23T11:47:16.561Z,19.69
2023-04-23T11:49:44.824Z,20.11
2023-04-23T11:52:12.855Z,20.46
2023-04-23T11:54:41.229Z,20.70
2023-04-23T11:57:08.707Z,20.79
2023-04-23T11:59:36.328Z,20.60
2023-04-23T12:02:03.934Z,20.83
2023-04-23T12:04:31.981Z,20.61
2023-04-23T12:06:59.669Z,20.73
2023-04-23T12:09:28.642Z,20.83
2023-04-23T12:11:58.401Z,20.68
2023-04-23T12:14:30.652Z,19.71
2023-04-23T12:16:59.012Z,18.47
2023-04-23T12:19:28.634Z,16.93
2023-04-23T12:22:00.589Z,16.63
2023-04-23T12:24:32.247Z,16.16
2023-04-23T12:27:01.096Z,15.87
2023-04-23T12:29:32.009Z,15.40
2023-04-23T12:32:00.923Z,14.84
2023-04-23T12:34:28.668Z,14.27
2023-04-23T12:36:57.607Z,14.31
2023-04-23T12:39:32.120Z,14.19
2023-04-23T12:42:05.285Z,14.04
2023-04-23T12:44:36.871Z,14.04
2023-04-23T12:47:05.188Z,14.03
2023-04-23T12:49:33.216Z,13.91
2023-04-23T12:52:01.684Z,14.05
2023-04-23T12:54:32.110Z,13.96
2023-04-23T12:57:03.089Z,13.85
2023-04-23T12:59:31.125Z,13.77
2023-04-23T13:02:03.063Z,14.05
2023-04-23T13:04:35.873Z,14.10
2023-04-23T13:07:03.484Z,13.91
2023-04-23T13:09:31.019Z,13.99
2023-04-23T13:12:00.329Z,13.74
2023-04-23T13:14:28.490Z,13.80
2023-04-23T13:16:58.050Z,13.87
2023-04-23T13:19:25.813Z,13.89
2023-04-23T13:21:53.879Z,14.00
2023-04-23T13:24:21.878Z,13.93
2023-04-23T13:26:49.998Z,14.06
2023-04-23T13:29:17.646Z,14.31
2023-04-23T13:31:45.259Z,14.45
2023-04-23T13:34:12.851Z,14.56
2023-04-23T13:36:41.695Z,14.62
2023-04-23T13:39:10.159Z,14.59
2023-04-23T13:41:37.839Z,14.77
2023-04-23T13:44:05.542Z,14.91
2023-04-23T13:46:33.234Z,15.15
2023-04-23T13:49:01.444Z,15.51
2023-04-23T13:51:35.408Z,15.75
2023-04-23T13:54:04.375Z,15.91
2023-04-23T13:56:32.455Z,16.18
2023-04-23T13:59:18.296Z,16.17
2023-04-23T14:01:50.355Z,16.32
2023-04-23T14:04:18.932Z,16.30
2023-04-23T14:06:47.156Z,16.18
2023-04-23T14:09:15.346Z,16.42
2023-04-23T14:11:43.128Z,16.57
2023-04-23T14:14:11.589Z,16.91
2023-04-23T14:16:39.841Z,16.96
2023-04-23T14:19:09.237Z,17.23
2023-04-23T14:21:37.766Z,17.38
2023-04-23T14:24:12.175Z,17.10
2023-04-23T14:26:49.375Z,17.15
2023-04-23T14:29:22.785Z,17.29
2023-04-23T14:31:53.212Z,17.46
2023-04-23T14:34:21.681Z,17.56
2023-04-23T14:36:49.646Z,17.80
2023-04-23T14:39:17.835Z,17.96
2023-04-23T14:41:46.183Z,18.05
2023-04-23T14:44:13.989Z,17.92
2023-04-23T14:46:41.962Z,18.08
2023-04-23T14:49:10.127Z,18.16
2023-04-23T14:51:38.041Z,18.15
2023-04-23T14:54:06.594Z,18.04
2023-04-23T14:56:34.984Z,18.11
2023-04-23T14:59:03.951Z,18.06
2023-04-23T15:01:32.863Z,18.09
2023-04-23T15:04:01.263Z,18.07
2023-04-23T15:06:29.432Z,18.14
2023-04-23T15:08:57.475Z,18.18
2023-04-23T15:11:25.711Z,18.09
2023-04-23T15:14:06.375Z,17.97
2023-04-23T15:16:47.466Z,18.00
2023-04-23T15:19:18.529Z,18.03
2023-04-23T15:21:48.569Z,17.97
2023-04-23T15:24:16.761Z,17.84
2023-04-23T15:26:46.159Z,17.68
2023-04-23T15:29:14.891Z,17.67
2023-04-23T15:31:43.462Z,17.93
2023-04-23T15:34:12.467Z,18.13
2023-04-23T15:36:41.570Z,18.27
2023-04-23T15:39:13.234Z,18.39
2023-04-23T15:41:44.795Z,18.61
2023-04-23T15:44:14.254Z,18.66
2023-04-23T15:46:44.879Z,18.57
2023-04-23T15:49:12.885Z,18.47
2023-04-23T15:51:41.655Z,18.49
2023-04-23T15:54:09.444Z,18.56
2023-04-23T15:56:37.504Z,18.61
2023-04-23T15:59:06.568Z,18.52
2023-04-23T16:01:35.011Z,18.55
2023-04-23T16:06:33.573Z,18.73
2023-04-23T16:09:02.607Z,18.84
2023-04-23T16:11:30.464Z,18.89
2023-04-23T16:13:58.888Z,18.81
2023-04-23T16:16:27.668Z,18.70
2023-04-23T16:18:57.822Z,18.23
2023-04-23T16:21:28.219Z,18.28
2023-04-23T16:23:56.475Z,18.19
2023-04-23T16:26:24.773Z,17.87
2023-04-23T16:29:05.555Z,17.68
2023-04-23T16:31:40.206Z,17.52
2023-04-23T16:34:08.312Z,17.32
2023-04-23T16:36:36.781Z,17.06
2023-04-23T16:39:04.766Z,16.84
2023-04-23T16:41:33.283Z,16.50
2023-04-23T16:44:01.075Z,16.27
2023-04-23T16:46:31.462Z,15.98
2023-04-23T16:49:02.834Z,15.80
2023-04-23T16:51:32.855Z,15.75
2023-04-23T16:54:00.584Z,15.74
2023-04-23T16:56:28.368Z,15.71
2023-04-23T16:58:56.455Z,15.59
2023-04-23T17:01:24.057Z,15.48
2023-04-23T17:03:51.731Z,15.35
2023-04-23T17:06:29.574Z,15.24
2023-04-23T17:08:58.612Z,15.00
2023-04-23T17:11:27.860Z,14.95
2023-04-23T17:13:56.225Z,14.76
2023-04-23T17:16:26.771Z,14.62
2023-04-23T17:18:55.029Z,14.47
2023-04-23T17:21:23.080Z,14.35
2023-04-23T17:23:51.538Z,14.22
2023-04-23T17:26:20.436Z,14.07
2023-04-23T17:28:48.972Z,13.93
2023-04-23T17:31:16.925Z,13.79
2023-04-23T17:33:45.912Z,13.65
2023-04-23T17:36:13.409Z,13.57
2023-04-23T17:38:41.376Z,13.38
2023-04-23T17:41:08.868Z,13.29
2023-04-23T17:43:36.670Z,13.11
2023-04-23T17:46:04.431Z,12.76
2023-04-23T17:48:32.209Z,13.08
2023-04-23T17:50:59.764Z,13.23
2023-04-23T17:53:27.245Z,13.28
2023-04-23T17:55:59.559Z,13.13
2023-04-23T17:58:27.445Z,13.10
2023-04-23T18:00:54.988Z,12.97
2023-04-23T18:03:23.524Z,12.90
2023-04-23T18:05:51.715Z,12.80
2023-04-23T18:08:21.391Z,12.76
2023-04-23T18:10:49.275Z,12.72
2023-04-23T18:13:17.208Z,12.70
2023-04-23T18:15:49.757Z,12.67
2023-04-23T18:18:17.939Z,12.58
2023-04-23T18:20:46.367Z,12.62
2023-04-23T18:23:14.496Z,12.57
2023-04-23T18:25:42.158Z,12.52
2023-04-23T18:28:09.757Z,12.53
2023-04-23T18:30:38.228Z,12.55
2023-04-23T18:33:19.572Z,12.58
2023-04-23T18:35:52.534Z,12.59
2023-04-23T18:38:25.354Z,12.59
2023-04-23T18:40:53.098Z,12.58
2023-04-23T18:43:20.848Z,12.59
2023-04-23T18:45:48.349Z,12.59
2023-04-23T18:48:45.749Z,12.58
2023-04-23T18:51:33.307Z,12.56
2023-04-23T18:54:01.778Z,12.48
2023-04-23T18:56:29.570Z,12.42
2023-04-23T18:58:57.121Z,12.42
2023-04-23T19:01:24.634Z,12.36
2023-04-23T19:03:52.303Z,12.31
2023-04-23T19:06:19.878Z,12.29
2023-04-23T19:08:47.469Z,12.23
2023-04-23T19:11:15.099Z,12.25
2023-04-23T19:13:42.670Z,12.23
2023-04-23T19:16:10.411Z,12.15
2023-04-23T19:18:38.064Z,12.15
2023-04-23T19:21:05.554Z,12.12
2023-04-23T19:23:33.175Z,12.11
2023-04-23T19:26:00.773Z,12.08
2023-04-23T19:28:28.269Z,12.01
2023-04-23T19:30:55.757Z,11.92
2023-04-23T19:33:23.871Z,11.89
2023-04-23T19:35:52.447Z,11.87
2023-04-23T19:38:20.210Z,11.81
2023-04-23T19:40:47.681Z,11.75
2023-04-23T19:43:15.422Z,11.65
2023-04-23T19:45:43.125Z,11.58
2023-04-23T19:48:10.736Z,11.52
2023-04-23T19:50:38.433Z,11.46
2023-04-23T19:53:08.172Z,11.36
2023-04-23T19:55:36.021Z,11.26
2023-04-23T19:58:06.687Z,11.16
2023-04-23T20:00:39.999Z,11.09
2023-04-23T20:03:08.676Z,10.99
2023-04-23T20:05:36.382Z,10.90
2023-04-23T20:08:11.235Z,10.84
2023-04-23T20:10:40.762Z,10.79
2023-04-23T20:13:08.556Z,10.75
2023-04-23T20:15:37.219Z,10.71
2023-04-23T20:18:05.199Z,10.66
2023-04-23T20:20:34.233Z,10.62
2023-04-23T20:23:02.172Z,10.49
2023-04-23T20:25:29.969Z,10.29
2023-04-23T20:27:58.052Z,10.34
2023-04-23T20:30:26.230Z,10.31
2023-04-23T20:32:54.813Z,10.32
2023-04-23T20:35:22.544Z,10.29
2023-04-23T20:37:52.289Z,10.26
2023-04-23T20:40:21.688Z,10.22
2023-04-23T20:42:52.143Z,10.18
2023-04-23T20:45:20.851Z,10.22
2023-04-23T20:47:49.209Z,10.16
2023-04-23T20:50:17.487Z,10.19
2023-04-23T20:52:45.271Z,10.21
2023-04-23T20:55:13.861Z,10.20
2023-04-23T20:57:41.780Z,10.09
2023-04-23T21:00:12.042Z,10.05
2023-04-23T21:02:40.855Z,10.04
2023-04-23T21:05:11.145Z,10.07
2023-04-23T21:07:39.998Z,9.99
2023-04-23T21:10:08.155Z,9.98
2023-04-23T21:12:36.538Z,9.95
2023-04-23T21:15:04.983Z,9.68
2023-04-23T21:17:33.317Z,9.75
2023-04-23T21:20:01.583Z,9.81
2023-04-23T21:22:30.232Z,9.79
2023-04-23T21:24:59.196Z,9.76
2023-04-23T21:27:27.335Z,9.73
2023-04-23T21:29:55.054Z,9.76
2023-04-23T21:32:23.047Z,9.71
2023-04-23T21:34:51.256Z,9.73
2023-04-23T21:37:19.470Z,9.78
2023-04-23T21:39:47.244Z,9.84
2023-04-23T21:42:15.032Z,9.83
2023-04-23T21:44:42.849Z,9.86
2023-04-23T21:47:11.233Z,9.90
2023-04-23T21:49:39.757Z,9.92
2023-04-23T21:52:09.256Z,9.76
2023-04-23T21:54:37.097Z,9.77
2023-04-23T21:57:05.021Z,9.85
2023-04-23T21:59:32.822Z,9.89
2023-04-23T22:02:01.034Z,9.85
2023-04-23T22:04:29.578Z,9.84
2023-04-23T22:07:03.679Z,9.73
2023-04-23T22:09:33.654Z,9.77
2023-04-23T22:12:03.072Z,9.73
2023-04-23T22:14:31.350Z,9.75
2023-04-23T22:16:59.504Z,9.76
2023-04-23T22:19:27.852Z,9.72
2023-04-23T22:21:55.798Z,9.68
2023-04-23T22:24:24.391Z,9.60
2023-04-23T22:26:52.374Z,9.53
2023-04-23T22:29:20.404Z,9.47
2023-04-23T22:31:48.916Z,9.44
2023-04-23T22:34:16.795Z,9.44
2023-04-23T22:36:44.484Z,9.40
2023-04-23T22:39:13.247Z,9.47
2023-04-23T22:41:41.104Z,9.47
2023-04-23T22:44:09.624Z,9.40
2023-04-23T22:46:37.603Z,9.46
2023-04-23T22:49:08.541Z,9.45
2023-04-23T22:51:39.042Z,9.46
2023-04-23T22:54:06.888Z,9.46
2023-04-23T22:56:37.847Z,9.42
2023-04-23T22:59:06.031Z,9.40
2023-04-23T23:01:35.734Z,9.39
2023-04-23T23:04:04.564Z,9.37
2023-04-23T23:06:33.335Z,9.34
2023-04-23T23:09:01.012Z,9.29
2023-04-23T23:11:29.521Z,9.26
2023-04-23T23:13:57.593Z,9.23
2023-04-23T23:16:25.834Z,9.15
2023-04-23T23:18:53.986Z,9.12
2023-04-23T23:21:22.485Z,9.10
2023-04-23T23:23:50.261Z,9.07
2023-04-23T23:26:18.434Z,9.07
2023-04-23T23:28:46.819Z,9.04
2023-04-23T23:31:17.842Z,8.97
2023-04-23T23:33:46.549Z,8.89
2023-04-23T23:36:14.815Z,8.79
2023-04-23T23:38:42.494Z,8.72
2023-04-23T23:41:10.323Z,8.70
2023-04-23T23:43:38.390Z,8.65
2023-04-23T23:46:08.150Z,8.62
2023-04-23T23:48:36.602Z,8.61
2023-04-23T23:51:05.814Z,8.59
2023-04-23T23:53:33.544Z,8.55
2023-04-23T23:56:01.458Z,8.47
2023-04-23T23:58:29.700Z,8.44
